sensor_id;sensor_type;location;lat;lon;timestamp;pressure;altitude;pressure_sealevel;temperature;humidity
113;BME280;45999;48.808;9.182;2023-10-13T06:00:44;97973.44;;;17.16;74.33
113;BME280;45999;48.808;9.182;2023-10-13T06:03:28;97973.22;;;17.32;74.17
113;BME280;45999;48.808;9.182;2023-10-13T06:06:12;97974.94;;;17.43;71.80
113;BME280;45999;48.808;9.182;2023-10-13T06:08:55;97981.66;;;17.51;71.87
113;BME280;45999;48.808;9.182;2023-10-13T06:11:39;97990.25;;;17.53;75.59
113;BME280;45999;48.808;9.182;2023-10-13T06:14:23;97992.31;;;17.36;79.16
113;BME280;45999;48.808;9.182;2023-10-13T06:17:07;98003.31;;;17.29;78.89
113;BME280;45999;48.808;9.182;2023-10-13T06:19:51;98000.91;;;17.33;80.28
113;BME280;45999;48.808;9.182;2023-10-13T06:22:35;98008.88;;;17.13;81.42
113;BME280;45999;48.808;9.182;2023-10-13T06:25:19;98008.63;;;17.14;81.69
113;BME280;45999;48.808;9.182;2023-10-13T06:28:03;98003.78;;;17.11;81.51
113;BME280;45999;48.808;9.182;2023-10-13T06:30:55;98007.00;;;17.13;83.15
113;BME280;45999;48.808;9.182;2023-10-13T06:33:22;98002.72;;;17.12;82.39
113;BME280;45999;48.808;9.182;2023-10-13T06:35:55;97997.84;;;17.04;82.62
113;BME280;45999;48.808;9.182;2023-10-13T06:38:22;97999.44;;;17.05;83.15
113;BME280;45999;48.808;9.182;2023-10-13T06:40:49;97985.03;;;17.21;81.96
113;BME280;45999;48.808;9.182;2023-10-13T06:43:17;97991.94;;;17.07;82.91
113;BME280;45999;48.808;9.182;2023-10-13T06:45:48;97995.16;;;17.09;83.55
113;BME280;45999;48.808;9.182;2023-10-13T06:48:23;97984.94;;;17.06;84.00
113;BME280;45999;48.808;9.182;2023-10-13T06:50:50;97986.28;;;17.09;83.81
113;BME280;45999;48.808;9.182;2023-10-13T06:53:21;97987.97;;;17.20;83.04
113;BME280;45999;48.808;9.182;2023-10-13T06:55:47;97992.84;;;17.28;83.51
113;BME280;45999;48.808;9.182;2023-10-13T06:58:17;97989.31;;;17.17;84.05
113;BME280;45999;48.808;9.182;2023-10-13T07:00:49;97986.38;;;17.24;82.17
113;BME280;45999;48.808;9.182;2023-10-13T07:03:19;97986.63;;;17.22;84.98
113;BME280;45999;48.808;9.182;2023-10-13T07:05:46;97983.13;;;17.27;85.13
113;BME280;45999;48.808;9.182;2023-10-13T07:08:14;97985.56;;;17.23;86.89
113;BME280;45999;48.808;9.182;2023-10-13T07:10:49;97986.41;;;17.39;83.35
113;BME280;45999;48.808;9.182;2023-10-13T07:13:28;97983.53;;;17.45;83.26
113;BME280;45999;48.808;9.182;2023-10-13T07:15:54;97979.00;;;17.56;83.46
113;BME280;45999;48.808;9.182;2023-10-13T07:18:26;97973.63;;;17.61;84.63
113;BME280;45999;48.808;9.182;2023-10-13T07:21:00;97977.16;;;17.71;81.72
113;BME280;45999;48.808;9.182;2023-10-13T07:23:35;97986.56;;;17.79;80.38
113;BME280;45999;48.808;9.182;2023-10-13T07:26:01;97986.84;;;17.97;79.37
113;BME280;45999;48.808;9.182;2023-10-13T07:28:29;97977.47;;;18.15;76.39
113;BME280;45999;48.808;9.182;2023-10-13T07:30:57;97983.66;;;18.25;77.85
113;BME280;45999;48.808;9.182;2023-10-13T07:33:37;97975.88;;;18.34;77.65
113;BME280;45999;48.808;9.182;2023-10-13T07:36:07;97988.53;;;18.48;76.62
113;BME280;45999;48.808;9.182;2023-10-13T07:38:42;97973.94;;;18.69;71.92
113;BME280;45999;48.808;9.182;2023-10-13T07:41:09;97981.22;;;18.74;70.44
113;BME280;45999;48.808;9.182;2023-10-13T07:43:40;97984.16;;;18.72;70.76
113;BME280;45999;48.808;9.182;2023-10-13T07:46:07;97975.50;;;18.95;68.13
113;BME280;45999;48.808;9.182;2023-10-13T07:48:36;97974.06;;;19.13;65.71
113;BME280;45999;48.808;9.182;2023-10-13T07:51:05;97979.16;;;19.19;66.76
113;BME280;45999;48.808;9.182;2023-10-13T07:53:35;97972.97;;;19.29;66.72
113;BME280;45999;48.808;9.182;2023-10-13T07:56:04;97982.16;;;19.28;66.15
113;BME280;45999;48.808;9.182;2023-10-13T07:58:33;97974.28;;;19.36;67.14
113;BME280;45999;48.808;9.182;2023-10-13T08:01:12;97976.69;;;19.43;65.90
113;BME280;45999;48.808;9.182;2023-10-13T08:03:42;97966.41;;;19.50;66.28
113;BME280;45999;48.808;9.182;2023-10-13T08:06:14;97961.47;;;19.62;63.77
113;BME280;45999;48.808;9.182;2023-10-13T08:08:51;97956.34;;;19.60;65.06
113;BME280;45999;48.808;9.182;2023-10-13T08:11:19;97956.63;;;19.64;64.53
113;BME280;45999;48.808;9.182;2023-10-13T08:13:57;97954.03;;;19.88;62.48
113;BME280;45999;48.808;9.182;2023-10-13T08:16:29;97951.66;;;20.20;59.21
113;BME280;45999;48.808;9.182;2023-10-13T08:19:14;97963.84;;;20.46;56.11
113;BME280;45999;48.808;9.182;2023-10-13T08:21:45;97960.25;;;20.55;56.38
113;BME280;45999;48.808;9.182;2023-10-13T08:24:16;97964.66;;;20.75;53.54
113;BME280;45999;48.808;9.182;2023-10-13T08:26:50;97954.97;;;20.69;55.35
113;BME280;45999;48.808;9.182;2023-10-13T08:29:34;97944.22;;;20.92;51.88
113;BME280;45999;48.808;9.182;2023-10-13T08:32:37;97944.88;;;21.26;49.78
113;BME280;45999;48.808;9.182;2023-10-13T08:35:11;97935.69;;;21.27;51.49
113;BME280;45999;48.808;9.182;2023-10-13T08:37:59;97940.91;;;21.42;48.95
113;BME280;45999;48.808;9.182;2023-10-13T08:40:29;97933.09;;;21.59;47.28
113;BME280;45999;48.808;9.182;2023-10-13T08:43:13;97920.47;;;21.73;46.43
113;BME280;45999;48.808;9.182;2023-10-13T08:45:41;97925.22;;;21.81;46.72
113;BME280;45999;48.808;9.182;2023-10-13T08:48:19;97926.31;;;21.99;45.64
113;BME280;45999;48.808;9.182;2023-10-13T08:50:52;97918.94;;;22.18;44.10
113;BME280;45999;48.808;9.182;2023-10-13T08:53:25;97928.00;;;22.27;43.52
113;BME280;45999;48.808;9.182;2023-10-13T08:56:04;97914.72;;;22.44;43.96
113;BME280;45999;48.808;9.182;2023-10-13T08:58:33;97921.06;;;22.53;42.98
113;BME280;45999;48.808;9.182;2023-10-13T09:01:20;97916.66;;;22.57;43.35
113;BME280;45999;48.808;9.182;2023-10-13T09:04:08;97918.69;;;22.65;42.51
113;BME280;45999;48.808;9.182;2023-10-13T09:07:15;97915.66;;;22.66;43.21
113;BME280;45999;48.808;9.182;2023-10-13T09:09:48;97915.69;;;22.80;42.26
113;BME280;45999;48.808;9.182;2023-10-13T09:12:38;97904.84;;;23.07;41.46
113;BME280;45999;48.808;9.182;2023-10-13T09:15:29;97911.56;;;23.36;40.09
113;BME280;45999;48.808;9.182;2023-10-13T09:18:10;97911.03;;;23.48;40.93
113;BME280;45999;48.808;9.182;2023-10-13T09:20:40;97907.81;;;23.59;40.38
113;BME280;45999;48.808;9.182;2023-10-13T09:23:14;97915.19;;;23.45;41.55
113;BME280;45999;48.808;9.182;2023-10-13T09:25:49;97915.66;;;23.47;40.71
113;BME280;45999;48.808;9.182;2023-10-13T09:28:19;97910.22;;;23.61;40.06
113;BME280;45999;48.808;9.182;2023-10-13T09:30:51;97914.00;;;23.73;39.72
113;BME280;45999;48.808;9.182;2023-10-13T09:33:25;97913.88;;;23.92;38.05
113;BME280;45999;48.808;9.182;2023-10-13T09:36:01;97910.13;;;23.88;38.80
113;BME280;45999;48.808;9.182;2023-10-13T09:38:32;97917.75;;;23.99;36.66
113;BME280;45999;48.808;9.182;2023-10-13T09:40:59;97911.66;;;23.80;37.40
113;BME280;45999;48.808;9.182;2023-10-13T09:43:27;97897.69;;;23.73;38.95
113;BME280;45999;48.808;9.182;2023-10-13T09:45:59;97891.13;;;23.52;39.40
113;BME280;45999;48.808;9.182;2023-10-13T09:48:35;97894.13;;;23.64;38.32
113;BME280;45999;48.808;9.182;2023-10-13T09:51:14;97883.09;;;23.47;39.27
113;BME280;45999;48.808;9.182;2023-10-13T09:53:49;97883.50;;;23.41;42.05
113;BME280;45999;48.808;9.182;2023-10-13T09:56:22;97882.31;;;23.47;38.81
113;BME280;45999;48.808;9.182;2023-10-13T09:59:02;97887.22;;;23.58;38.15
113;BME280;45999;48.808;9.182;2023-10-13T10:01:40;97875.97;;;23.73;38.61
113;BME280;45999;48.808;9.182;2023-10-13T10:04:16;97868.63;;;24.09;37.21
113;BME280;45999;48.808;9.182;2023-10-13T10:09:18;97875.94;;;24.61;36.13
113;BME280;45999;48.808;9.182;2023-10-13T10:17:22;97870.03;;;24.98;35.49
113;BME280;45999;48.808;9.182;2023-10-13T10:19:55;97870.88;;;25.07;34.43
113;BME280;45999;48.808;9.182;2023-10-13T10:22:26;97863.69;;;25.20;34.59
113;BME280;45999;48.808;9.182;2023-10-13T10:24:59;97877.22;;;25.03;34.65
113;BME280;45999;48.808;9.182;2023-10-13T10:27:31;97866.44;;;24.81;36.12
113;BME280;45999;48.808;9.182;2023-10-13T10:29:58;97862.75;;;24.77;36.60
113;BME280;45999;48.808;9.182;2023-10-13T10:32:36;97854.09;;;24.75;35.77
113;BME280;45999;48.808;9.182;2023-10-13T10:35:09;97852.22;;;24.75;35.49
113;BME280;45999;48.808;9.182;2023-10-13T10:37:41;97851.25;;;24.88;35.73
113;BME280;45999;48.808;9.182;2023-10-13T10:40:16;97858.81;;;24.91;35.05
113;BME280;45999;48.808;9.182;2023-10-13T10:43:11;97846.63;;;24.80;35.12
113;BME280;45999;48.808;9.182;2023-10-13T10:45:46;97837.28;;;24.64;36.70
113;BME280;45999;48.808;9.182;2023-10-13T10:48:15;97840.22;;;24.76;35.66
113;BME280;45999;48.808;9.182;2023-10-13T10:50:51;97822.78;;;24.86;35.33
113;BME280;45999;48.808;9.182;2023-10-13T10:53:23;97828.59;;;25.01;36.31
113;BME280;45999;48.808;9.182;2023-10-13T10:56:04;97829.88;;;25.04;35.11
113;BME280;45999;48.808;9.182;2023-10-13T10:58:34;97816.28;;;25.21;34.38
113;BME280;45999;48.808;9.182;2023-10-13T11:01:09;97819.16;;;25.24;34.54
113;BME280;45999;48.808;9.182;2023-10-13T11:03:37;97824.41;;;25.04;35.50
113;BME280;45999;48.808;9.182;2023-10-13T11:06:11;97821.84;;;24.99;34.89
113;BME280;45999;48.808;9.182;2023-10-13T11:08:42;97811.28;;;24.97;35.22
113;BME280;45999;48.808;9.182;2023-10-13T11:11:09;97806.97;;;24.96;35.30
113;BME280;45999;48.808;9.182;2023-10-13T11:13:43;97800.91;;;25.08;34.88
113;BME280;45999;48.808;9.182;2023-10-13T11:16:21;97799.13;;;24.95;35.54
113;BME280;45999;48.808;9.182;2023-10-13T11:19:00;97791.31;;;25.10;36.01
113;BME280;45999;48.808;9.182;2023-10-13T11:21:30;97787.66;;;25.32;35.03
113;BME280;45999;48.808;9.182;2023-10-13T11:23:57;97786.41;;;25.38;35.48
113;BME280;45999;48.808;9.182;2023-10-13T11:26:35;97783.19;;;25.70;34.81
113;BME280;45999;48.808;9.182;2023-10-13T11:29:08;97787.16;;;25.81;34.93
113;BME280;45999;48.808;9.182;2023-10-13T11:31:35;97780.91;;;25.97;34.02
113;BME280;45999;48.808;9.182;2023-10-13T11:34:03;97778.84;;;25.94;33.50
113;BME280;45999;48.808;9.182;2023-10-13T11:36:31;97777.53;;;26.00;33.92
113;BME280;45999;48.808;9.182;2023-10-13T11:38:58;97779.53;;;26.29;33.79
113;BME280;45999;48.808;9.182;2023-10-13T11:41:24;97778.94;;;26.15;32.19
113;BME280;45999;48.808;9.182;2023-10-13T11:43:58;97768.50;;;26.17;32.09
113;BME280;45999;48.808;9.182;2023-10-13T11:46:49;97769.31;;;26.09;32.96
113;BME280;45999;48.808;9.182;2023-10-13T11:49:21;97767.38;;;26.18;32.63
113;BME280;45999;48.808;9.182;2023-10-13T11:51:59;97772.31;;;26.24;32.59
113;BME280;45999;48.808;9.182;2023-10-13T11:54:41;97764.41;;;26.40;32.13
113;BME280;45999;48.808;9.182;2023-10-13T11:57:08;97766.50;;;26.43;32.01
113;BME280;45999;48.808;9.182;2023-10-13T11:59:35;97761.53;;;26.36;32.51
113;BME280;45999;48.808;9.182;2023-10-13T12:02:10;97757.66;;;26.46;31.49
113;BME280;45999;48.808;9.182;2023-10-13T12:04:53;97755.25;;;26.44;31.89
113;BME280;45999;48.808;9.182;2023-10-13T12:07:22;97741.56;;;26.53;32.17
113;BME280;45999;48.808;9.182;2023-10-13T12:09:53;97738.19;;;26.56;31.86
113;BME280;45999;48.808;9.182;2023-10-13T12:12:31;97740.63;;;26.57;31.11
113;BME280;45999;48.808;9.182;2023-10-13T12:15:05;97739.41;;;26.38;31.09
113;BME280;45999;48.808;9.182;2023-10-13T12:17:39;97734.41;;;26.40;32.08
113;BME280;45999;48.808;9.182;2023-10-13T12:20:10;97732.97;;;26.42;31.63
113;BME280;45999;48.808;9.182;2023-10-13T12:22:43;97724.31;;;26.40;31.64
113;BME280;45999;48.808;9.182;2023-10-13T12:25:20;97729.06;;;26.52;31.69
113;BME280;45999;48.808;9.182;2023-10-13T12:27:52;97722.50;;;26.61;31.76
113;BME280;45999;48.808;9.182;2023-10-13T12:30:22;97717.81;;;26.62;31.32
113;BME280;45999;48.808;9.182;2023-10-13T12:33:01;97718.44;;;26.67;31.12
113;BME280;45999;48.808;9.182;2023-10-13T12:35:40;97713.59;;;26.73;30.77
113;BME280;45999;48.808;9.182;2023-10-13T12:38:28;97711.59;;;26.82;30.46
113;BME280;45999;48.808;9.182;2023-10-13T12:41:16;97700.09;;;26.76;30.78
113;BME280;45999;48.808;9.182;2023-10-13T12:44:01;97697.06;;;26.90;30.88
113;BME280;45999;48.808;9.182;2023-10-13T12:46:44;97690.97;;;26.93;30.77
113;BME280;45999;48.808;9.182;2023-10-13T12:49:25;97687.72;;;26.99;31.00
113;BME280;45999;48.808;9.182;2023-10-13T12:52:14;97682.69;;;27.01;31.11
113;BME280;45999;48.808;9.182;2023-10-13T12:54:47;97675.72;;;27.13;31.07
113;BME280;45999;48.808;9.182;2023-10-13T12:57:27;97678.88;;;27.23;30.49
113;BME280;45999;48.808;9.182;2023-10-13T12:59:54;97677.41;;;27.26;30.92
113;BME280;45999;48.808;9.182;2023-10-13T13:02:21;97670.16;;;27.09;30.73
113;BME280;45999;48.808;9.182;2023-10-13T13:04:50;97668.13;;;27.18;30.92
113;BME280;45999;48.808;9.182;2023-10-13T13:07:21;97665.88;;;27.20;31.45
113;BME280;45999;48.808;9.182;2023-10-13T13:09:48;97655.91;;;27.24;30.11
113;BME280;45999;48.808;9.182;2023-10-13T13:12:15;97656.88;;;27.20;30.49
113;BME280;45999;48.808;9.182;2023-10-13T13:14:42;97652.69;;;27.22;29.31
113;BME280;45999;48.808;9.182;2023-10-13T13:17:12;97637.47;;;27.00;30.46
113;BME280;45999;48.808;9.182;2023-10-13T13:19:38;97643.03;;;27.04;30.85
113;BME280;45999;48.808;9.182;2023-10-13T13:22:06;97642.78;;;26.97;30.18
113;BME280;45999;48.808;9.182;2023-10-13T13:24:40;97640.91;;;27.09;30.79
113;BME280;45999;48.808;9.182;2023-10-13T13:27:12;97645.03;;;26.95;30.32
113;BME280;45999;48.808;9.182;2023-10-13T13:29:43;97636.72;;;26.91;30.50
113;BME280;45999;48.808;9.182;2023-10-13T13:32:10;97624.03;;;26.95;30.39
113;BME280;45999;48.808;9.182;2023-10-13T13:34:47;97622.34;;;27.24;29.19
113;BME280;45999;48.808;9.182;2023-10-13T13:37:20;97625.47;;;27.13;29.71
113;BME280;45999;48.808;9.182;2023-10-13T13:39:46;97619.50;;;27.20;28.78
113;BME280;45999;48.808;9.182;2023-10-13T13:42:12;97618.88;;;27.47;28.04
113;BME280;45999;48.808;9.182;2023-10-13T13:44:45;97604.66;;;27.42;28.12
113;BME280;45999;48.808;9.182;2023-10-13T13:47:13;97600.56;;;27.48;28.13
113;BME280;45999;48.808;9.182;2023-10-13T13:49:40;97604.28;;;27.31;28.71
113;BME280;45999;48.808;9.182;2023-10-13T13:52:16;97604.75;;;27.33;28.52
113;BME280;45999;48.808;9.182;2023-10-13T13:54:47;97596.28;;;27.26;28.57
113;BME280;45999;48.808;9.182;2023-10-13T13:57:13;97591.09;;;27.33;28.30
113;BME280;45999;48.808;9.182;2023-10-13T13:59:40;97587.44;;;27.29;28.11
113;BME280;45999;48.808;9.182;2023-10-13T14:02:10;97579.97;;;27.38;28.37
113;BME280;45999;48.808;9.182;2023-10-13T14:04:46;97575.88;;;27.44;27.75
113;BME280;45999;48.808;9.182;2023-10-13T14:07:15;97569.94;;;27.30;27.94
113;BME280;45999;48.808;9.182;2023-10-13T14:09:44;97570.63;;;27.39;27.72
113;BME280;45999;48.808;9.182;2023-10-13T14:12:10;97574.16;;;27.52;27.33
113;BME280;45999;48.808;9.182;2023-10-13T14:14:55;97575.19;;;27.47;27.57
113;BME280;45999;48.808;9.182;2023-10-13T14:17:23;97564.47;;;27.30;27.60
113;BME280;45999;48.808;9.182;2023-10-13T14:19:56;97570.19;;;27.37;27.72
113;BME280;45999;48.808;9.182;2023-10-13T14:22:22;97565.19;;;27.51;27.68
113;BME280;45999;48.808;9.182;2023-10-13T14:24:50;97561.06;;;27.45;27.43
113;BME280;45999;48.808;9.182;2023-10-13T14:27:20;97558.44;;;27.37;28.39
113;BME280;45999;48.808;9.182;2023-10-13T14:29:49;97558.91;;;27.27;28.25
113;BME280;45999;48.808;9.182;2023-10-13T14:32:18;97554.09;;;27.24;28.46
113;BME280;45999;48.808;9.182;2023-10-13T14:34:49;97558.16;;;27.17;28.35
113;BME280;45999;48.808;9.182;2023-10-13T14:37:20;97559.03;;;27.09;28.18
113;BME280;45999;48.808;9.182;2023-10-13T14:39:52;97554.34;;;26.98;29.11
113;BME280;45999;48.808;9.182;2023-10-13T14:42:22;97539.59;;;27.11;28.04
113;BME280;45999;48.808;9.182;2023-10-13T14:44:48;97539.34;;;27.04;28.33
113;BME280;45999;48.808;9.182;2023-10-13T14:47:26;97543.91;;;27.00;28.13
113;BME280;45999;48.808;9.182;2023-10-13T14:49:53;97542.06;;;26.92;28.19
113;BME280;45999;48.808;9.182;2023-10-13T14:52:25;97543.16;;;26.79;29.39
113;BME280;45999;48.808;9.182;2023-10-13T14:54:51;97537.06;;;26.94;28.58
113;BME280;45999;48.808;9.182;2023-10-13T14:57:21;97536.34;;;26.85;28.14
113;BME280;45999;48.808;9.182;2023-10-13T14:59:51;97535.63;;;26.76;28.40
113;BME280;45999;48.808;9.182;2023-10-13T15:02:17;97534.66;;;26.60;28.80
113;BME280;45999;48.808;9.182;2023-10-13T15:04:43;97531.97;;;26.72;28.55
113;BME280;45999;48.808;9.182;2023-10-13T15:07:13;97529.44;;;26.46;29.30
113;BME280;45999;48.808;9.182;2023-10-13T15:09:41;97525.47;;;26.44;28.39
113;BME280;45999;48.808;9.182;2023-10-13T15:12:09;97524.41;;;26.57;28.48
113;BME280;45999;48.808;9.182;2023-10-13T15:14:37;97517.03;;;26.37;28.80
113;BME280;45999;48.808;9.182;2023-10-13T15:17:04;97518.03;;;26.32;28.87
113;BME280;45999;48.808;9.182;2023-10-13T15:19:32;97523.06;;;26.42;27.72
113;BME280;45999;48.808;9.182;2023-10-13T15:22:02;97516.03;;;26.41;27.67
113;BME280;45999;48.808;9.182;2023-10-13T15:24:31;97513.94;;;26.18;28.53
113;BME280;45999;48.808;9.182;2023-10-13T15:27:01;97509.63;;;25.96;29.10
113;BME280;45999;48.808;9.182;2023-10-13T15:29:27;97503.41;;;25.87;28.92
113;BME280;45999;48.808;9.182;2023-10-13T15:32:01;97506.59;;;26.18;27.83
113;BME280;45999;48.808;9.182;2023-10-13T15:34:50;97505.47;;;25.90;28.67
113;BME280;45999;48.808;9.182;2023-10-13T15:37:17;97500.25;;;25.77;29.19
113;BME280;45999;48.808;9.182;2023-10-13T15:39:44;97504.19;;;25.96;27.71
113;BME280;45999;48.808;9.182;2023-10-13T15:42:10;97502.63;;;25.87;28.12
113;BME280;45999;48.808;9.182;2023-10-13T15:44:39;97504.66;;;25.98;26.85
113;BME280;45999;48.808;9.182;2023-10-13T15:47:08;97499.41;;;25.93;27.14
113;BME280;45999;48.808;9.182;2023-10-13T15:49:37;97499.22;;;25.90;26.88
113;BME280;45999;48.808;9.182;2023-10-13T15:52:06;97496.69;;;25.85;26.64
113;BME280;45999;48.808;9.182;2023-10-13T15:54:34;97496.75;;;25.76;26.96
113;BME280;45999;48.808;9.182;2023-10-13T15:57:01;97497.69;;;25.80;26.58
113;BME280;45999;48.808;9.182;2023-10-13T15:59:31;97501.38;;;25.84;26.02
113;BME280;45999;48.808;9.182;2023-10-13T16:01:59;97485.31;;;25.62;26.72
113;BME280;45999;48.808;9.182;2023-10-13T16:04:25;97492.16;;;25.39;27.74
113;BME280;45999;48.808;9.182;2023-10-13T16:06:52;97485.31;;;25.25;27.45
113;BME280;45999;48.808;9.182;2023-10-13T16:09:19;97477.19;;;25.08;28.41
113;BME280;45999;48.808;9.182;2023-10-13T16:11:49;97478.50;;;25.02;27.91
113;BME280;45999;48.808;9.182;2023-10-13T16:14:16;97477.25;;;24.99;28.00
113;BME280;45999;48.808;9.182;2023-10-13T16:16:45;97477.16;;;24.70;29.28
113;BME280;45999;48.808;9.182;2023-10-13T16:19:19;97466.28;;;24.70;28.29
113;BME280;45999;48.808;9.182;2023-10-13T16:21:47;97469.63;;;24.84;28.11
113;BME280;45999;48.808;9.182;2023-10-13T16:24:14;97467.56;;;24.64;29.48
113;BME280;45999;48.808;9.182;2023-10-13T16:26:44;97455.53;;;24.82;27.77
113;BME280;45999;48.808;9.182;2023-10-13T16:29:13;97461.97;;;24.52;29.26
113;BME280;45999;48.808;9.182;2023-10-13T16:31:40;97463.25;;;24.46;28.81
113;BME280;45999;48.808;9.182;2023-10-13T16:34:11;97461.47;;;24.59;27.98
113;BME280;45999;48.808;9.182;2023-10-13T16:36:37;97465.81;;;24.43;29.29
113;BME280;45999;48.808;9.182;2023-10-13T16:39:03;97474.31;;;24.16;29.45
113;BME280;45999;48.808;9.182;2023-10-13T16:41:30;97460.72;;;23.99;30.00
113;BME280;45999;48.808;9.182;2023-10-13T16:43:56;97462.97;;;24.05;29.47
113;BME280;45999;48.808;9.182;2023-10-13T16:46:26;97463.13;;;24.00;29.45
113;BME280;45999;48.808;9.182;2023-10-13T16:48:52;97472.06;;;23.92;30.28
113;BME280;45999;48.808;9.182;2023-10-13T16:51:18;97463.72;;;23.89;29.81
113;BME280;45999;48.808;9.182;2023-10-13T16:53:44;97458.59;;;23.70;30.81
113;BME280;45999;48.808;9.182;2023-10-13T16:56:17;97461.75;;;23.47;30.40
113;BME280;45999;48.808;9.182;2023-10-13T16:58:44;97464.88;;;23.32;32.24
113;BME280;45999;48.808;9.182;2023-10-13T17:01:11;97461.72;;;23.08;33.85
113;BME280;45999;48.808;9.182;2023-10-13T17:03:38;97460.16;;;23.15;31.99
113;BME280;45999;48.808;9.182;2023-10-13T17:06:07;97462.19;;;23.01;33.77
113;BME280;45999;48.808;9.182;2023-10-13T17:08:34;97469.91;;;22.86;33.65
113;BME280;45999;48.808;9.182;2023-10-13T17:11:11;97471.72;;;22.90;32.69
113;BME280;45999;48.808;9.182;2023-10-13T17:13:38;97471.63;;;22.73;33.24
113;BME280;45999;48.808;9.182;2023-10-13T17:16:19;97467.56;;;22.62;33.66
113;BME280;45999;48.808;9.182;2023-10-13T17:18:47;97467.88;;;22.61;34.36
113;BME280;45999;48.808;9.182;2023-10-13T17:21:18;97473.44;;;22.56;33.82
113;BME280;45999;48.808;9.182;2023-10-13T17:23:47;97463.25;;;22.61;33.91
113;BME280;45999;48.808;9.182;2023-10-13T17:26:15;97463.94;;;22.67;33.50
113;BME280;45999;48.808;9.182;2023-10-13T17:28:42;97473.03;;;22.71;33.95
113;BME280;45999;48.808;9.182;2023-10-13T17:31:09;97465.81;;;22.66;34.71
113;BME280;45999;48.808;9.182;2023-10-13T17:33:38;97458.81;;;22.96;33.60
113;BME280;45999;48.808;9.182;2023-10-13T17:36:06;97452.44;;;22.92;33.81
113;BME280;45999;48.808;9.182;2023-10-13T17:38:33;97459.03;;;23.16;33.69
113;BME280;45999;48.808;9.182;2023-10-13T17:41:00;97452.78;;;23.07;33.97
113;BME280;45999;48.808;9.182;2023-10-13T17:43:26;97450.50;;;22.92;34.22
113;BME280;45999;48.808;9.182;2023-10-13T17:45:52;97454.78;;;22.85;36.13
113;BME280;45999;48.808;9.182;2023-10-13T17:48:19;97456.75;;;22.62;36.79
113;BME280;45999;48.808;9.182;2023-10-13T17:50:47;97457.47;;;22.32;37.60
113;BME280;45999;48.808;9.182;2023-10-13T17:53:14;97458.00;;;22.21;37.05
113;BME280;45999;48.808;9.182;2023-10-13T17:55:40;97457.03;;;22.17;36.87
113;BME280;45999;48.808;9.182;2023-10-13T17:58:06;97455.41;;;21.94;38.27
113;BME280;45999;48.808;9.182;2023-10-13T18:00:34;97442.22;;;22.01;37.13
113;BME280;45999;48.808;9.182;2023-10-13T18:03:01;97444.47;;;21.99;36.98
113;BME280;45999;48.808;9.182;2023-10-13T18:05:31;97441.94;;;22.02;37.48
113;BME280;45999;48.808;9.182;2023-10-13T18:08:01;97446.78;;;21.92;38.00
113;BME280;45999;48.808;9.182;2023-10-13T18:10:28;97441.47;;;21.87;37.88
113;BME280;45999;48.808;9.182;2023-10-13T18:12:55;97446.53;;;21.80;38.86
113;BME280;45999;48.808;9.182;2023-10-13T18:15:21;97438.13;;;21.81;39.66
113;BME280;45999;48.808;9.182;2023-10-13T18:17:49;97437.00;;;21.82;40.07
113;BME280;45999;48.808;9.182;2023-10-13T18:20:18;97441.25;;;21.75;40.05
113;BME280;45999;48.808;9.182;2023-10-13T18:22:48;97438.69;;;21.65;40.82
113;BME280;45999;48.808;9.182;2023-10-13T18:25:15;97438.16;;;21.54;42.12
113;BME280;45999;48.808;9.182;2023-10-13T18:27:49;97437.38;;;21.40;42.49
113;BME280;45999;48.808;9.182;2023-10-13T18:30:16;97435.25;;;21.37;42.48
113;BME280;45999;48.808;9.182;2023-10-13T18:32:47;97430.22;;;21.58;42.22
113;BME280;45999;48.808;9.182;2023-10-13T18:35:15;97428.09;;;21.55;41.46
113;BME280;45999;48.808;9.182;2023-10-13T18:37:44;97422.28;;;21.75;40.00
113;BME280;45999;48.808;9.182;2023-10-13T18:40:12;97423.22;;;21.92;39.99
113;BME280;45999;48.808;9.182;2023-10-13T18:42:40;97422.91;;;21.72;41.09
113;BME280;45999;48.808;9.182;2023-10-13T18:45:11;97417.88;;;21.65;41.25
113;BME280;45999;48.808;9.182;2023-10-13T18:47:39;97411.28;;;21.58;41.30
113;BME280;45999;48.808;9.182;2023-10-13T18:50:05;97405.28;;;21.61;41.62
113;BME280;45999;48.808;9.182;2023-10-13T18:52:32;97408.34;;;21.68;41.37
113;BME280;45999;48.808;9.182;2023-10-13T18:54:58;97409.06;;;21.60;41.43
113;BME280;45999;48.808;9.182;2023-10-13T18:57:25;97409.28;;;21.63;41.11
113;BME280;45999;48.808;9.182;2023-10-13T18:59:51;97408.47;;;21.63;41.55
113;BME280;45999;48.808;9.182;2023-10-13T19:02:17;97402.25;;;21.62;41.64
113;BME280;45999;48.808;9.182;2023-10-13T19:04:44;97402.84;;;21.73;41.38
113;BME280;45999;48.808;9.182;2023-10-13T19:07:11;97400.03;;;21.64;41.81
113;BME280;45999;48.808;9.182;2023-10-13T19:09:37;97401.03;;;21.68;41.93
113;BME280;45999;48.808;9.182;2023-10-13T19:12:04;97402.84;;;21.73;41.76
113;BME280;45999;48.808;9.182;2023-10-13T19:14:33;97404.84;;;21.67;42.55
113;BME280;45999;48.808;9.182;2023-10-13T19:17:00;97409.94;;;21.69;42.22
113;BME280;45999;48.808;9.182;2023-10-13T19:19:27;97391.53;;;21.71;42.27
113;BME280;45999;48.808;9.182;2023-10-13T19:21:57;97392.84;;;21.73;42.84
113;BME280;45999;48.808;9.182;2023-10-13T19:24:25;97392.13;;;21.68;42.46
113;BME280;45999;48.808;9.182;2023-10-13T19:26:53;97401.81;;;21.69;42.49
113;BME280;45999;48.808;9.182;2023-10-13T19:29:20;97405.06;;;21.71;42.49
113;BME280;45999;48.808;9.182;2023-10-13T19:31:48;97408.13;;;21.78;41.98
113;BME280;45999;48.808;9.182;2023-10-13T19:34:14;97407.06;;;21.65;42.81
113;BME280;45999;48.808;9.182;2023-10-13T19:36:43;97399.03;;;21.74;42.17
113;BME280;45999;48.808;9.182;2023-10-13T19:39:09;97399.03;;;21.74;42.52
113;BME280;45999;48.808;9.182;2023-10-13T19:41:44;97391.91;;;21.78;42.48
113;BME280;45999;48.808;9.182;2023-10-13T19:44:11;97384.41;;;21.75;42.61
113;BME280;45999;48.808;9.182;2023-10-13T19:46:40;97394.13;;;21.76;42.10
113;BME280;45999;48.808;9.182;2023-10-13T19:49:06;97396.53;;;21.77;42.61
113;BME280;45999;48.808;9.182;2023-10-13T19:51:33;97393.53;;;21.65;42.32
113;BME280;45999;48.808;9.182;2023-10-13T19:54:02;97399.06;;;21.60;42.31